Carrollton, OH (44615)

3:45 PM EDT on September 03, 2015 (GMT -0400)
OHDOT | | Change Station
CLOSE
Current Station
Personal Weather Station
Location: Carrollton, OH
Elevation: 1119 ft
Nearby Weather Stations

Elev 1119 ft 40.59 °N, 81.08 °W | Updated 25 minutes ago

Scattered Clouds
Scattered Clouds
86.0 °F
Feels Like 86.0 °F
N
1.0
Wind Variable Wind from NNE
Gusts 7.0 mph

Today
High -- | Low -- °F
--% Chance of Precip.
Yesterday
High -- | Low -- °F
Precip. -- in
6:53 AM 7:53 PM
Waning Gibbous, 67% visible
Pressure 29.94 in
Visibility 10.0 miles
Clouds Scattered Clouds 5500 ft
Scattered Clouds 8500 ft
Dew Point 63.0 °F
Humidity 46%
Rainfall in
Snow Depth Not available.
UV 5 out of 12
Pollen 10.30 out of 12
Air Quality Not available.
Flu Activity Not available.
SPECI KPHD 031941Z AUTO 33006KT 10SM VCTS SCT055 SCT085 32/18 A2994 RMK AO2 LTG DSNT ALQDS T03170183
Pressure 29.94 in
Visibility 10.0 miles
Clouds Scattered Clouds 5500 ft
Scattered Clouds 8500 ft
Dew Point 63.0 °F
Humidity 46%
Rainfall in
Snow Depth Not available.
UV 5 out of 12
Pollen 10.30 out of 12
Air Quality Not available.
Flu Activity Not available.
SPECI KPHD 031941Z AUTO 33006KT 10SM VCTS SCT055 SCT085 32/18 A2994 RMK AO2 LTG DSNT ALQDS T03170183

10-Day Weather Forecast

×

Almanac

Astronomy

Sep. 03, 2015 Rise Set
Actual Time
Civil Twilight
Nautical Twilight
Astronomical Twilight
Moon
Length of Visible Light
Length of Day
Tomorrow will be .
, % of the Moon is Illuminated

Today's Extremes

State Highs State Lows

Community

WunderPhotos

Upload Photos

1,852,017 photos uploaded!

WunderBlogs® & News

Nearby

Air Quality

  Air Quality AQ Index Pollutant
Not available.

Snow Depth

Station Depth Elevation

Earthquake Activity

City Distance Mag. Time & Date
Minimum magnitude displayed is 2.5.

Coastal Water Temperatures

Place Temperature

Stations

Nearby Weather Stations

Station Location Temp. Windchill Dew Point Humidity Wind Precip. Elev Updated Type